nws-alerts: Checking more than four warning/county codes can delay the loading of your pages. You should use a cron job to get the data.

Nearby METAR Reports

 

KFCI - Richmond/Chester, Virginia, USA
Distance from station: ESE 7mi, 11km
Updated: Mon, 27-May-2024 11:56am EDT
Few Clouds
Few Clouds
 Wind from S
Wind: S 12 mph , 19 km/h, Gust: 18 mph , 30 km/h
Temperature: 75°F , 24°C
Dew Point: 72°F , 22°C
Humidity: 89%
Barometer: 29.81 inHg , 1009.5 hPa
Clouds: Few Clouds
Visibility: 10 miles , 16 km
Cloud details: Few Clouds 11000 ft
2024/05/27 15:56 KFCI 271556Z AUTO 17010G16KT 10SM FEW110 24/22 A2981 RMK AO2 RAB18E28 SLP103 P0000 T02440217
KRIC - Richmond, Virginia, USA
Distance from station: ENE 19mi, 30km
Updated: Mon, 27-May-2024 11:54am EDT
Overcast
Overcast
 Wind from SSE
Wind: SSE 14 mph , 22 km/h
Temperature: 75°F , 24°C
Dew Point: 70°F , 21°C
Humidity: 83%
Barometer: 29.81 inHg , 1009.5 hPa
Clouds: Overcast
Visibility: 10 miles , 16 km
Cloud details: Partly cloudy 3900 ft
Mostly cloudy 7500 ft
Overcast 11000 ft
2024/05/27 15:54 KRIC 271554Z 15012KT 10SM SCT039 BKN075 OVC110 24/21 A2981 RMK AO2 SLP098 T02390206 $
 
KPTB - Petersburg, Virginia, USA
Distance from station: SSE 19mi, 31km
Updated: Mon, 27-May-2024 12:55pm EDT
Overcast
Overcast
 Wind from S
Wind: S 7 mph , 11 km/h
Temperature: 75°F , 24°C
Dew Point: 70°F , 21°C
Humidity: 83%
Barometer: 29.82 inHg , 1009.8 hPa
Clouds: Overcast
Visibility: 10 miles , 16 km
Cloud details: Overcast 1200 ft
2024/05/27 16:55 KPTB 271655Z AUTO 17006KT 140V230 10SM OVC012 24/21 A2982 RMK AO2 T02370208
KOFP - Richmond/Hanover, Virginia, USA
Distance from station: NNE 22mi, 36km
Updated: Mon, 27-May-2024 11:54am EDT
Few Clouds
Few Clouds
 Wind from S
Wind: S 9 mph , 15 km/h, Gust: 18 mph , 30 km/h
Temperature: 79°F , 26°C
Dew Point: 72°F , 22°C
Humidity: 79%
Barometer: 29.80 inHg , 1009.1 hPa
Clouds: Few Clouds
Visibility: 10 miles , 16 km
Cloud details: Few Clouds 12000 ft
2024/05/27 15:54 KOFP 271554Z AUTO 18008G16KT 10SM FEW120 26/22 A2980 RMK AO2 RAE24 SLP089 P0001 T02560217
 
KW96 - Quinton, Virginia, USA
Distance from station: E 28mi, 46km
Updated: Mon, 27-May-2024 12:35pm EDT
Overcast
Overcast
 Wind from S
Wind: S 6 mph , 9 km/h
Temperature: 73°F , 23°C
Dew Point: 70°F , 21°C
Humidity: 89%
Barometer: 29.81 inHg , 1009.5 hPa
Clouds: Overcast
Visibility: 10 miles , 16 km
Cloud details: Overcast 1000 ft
2024/05/27 16:35 KW96 271635Z AUTO 18005KT 10SM OVC010 23/21 A2981 RMK AO1 T02270207
KBKT - Blackstone Army, Virginia, USA
Distance from station: SW 30mi, 48km
Updated: Mon, 27-May-2024 12:55pm EDT
Mostly cloudy
Mostly cloudy
 Wind from SSW
Wind: SSW 8 mph , 13 km/h, Gust: 20 mph , 31 km/h
Temperature: 77°F , 25°C
Dew Point: 70°F , 21°C
Humidity: 79%
Barometer: 29.82 inHg , 1009.8 hPa
Clouds: Mostly cloudy
Visibility: 10 miles , 16 km
Cloud details: Mostly cloudy 1900 ft
2024/05/27 16:55 KBKT 271655Z AUTO 21007G17KT 10SM BKN019 25/21 A2982 RMK AO1 T02450207
 
KW81 - Crewe, Virginia, USA
Distance from station: SW 30mi, 49km
Updated: Mon, 27-May-2024 12:35pm EDT
Overcast
Overcast
 Wind from SSW
Wind: SSW 9 mph , 15 km/h, Gust: 17 mph , 28 km/h
Temperature: 77°F , 25°C
Dew Point: 66°F , 19°C
Humidity: 69%
Barometer: 29.82 inHg , 1009.8 hPa
Clouds: Overcast
Visibility: 10 miles , 16 km
Cloud details: Overcast 2000 ft
2024/05/27 16:35 KW81 271635Z AUTO 20008G15KT 10SM OVC020 25/19 A2982 RMK AO1 T02450191
K7W4 - Bumpass, Virginia, USA
Distance from station: N 38mi, 61km
Updated: Mon, 27-May-2024 12:35pm EDT
Partly cloudy
Partly cloudy
 Wind from calm
Wind: Calm
Temperature: 75°F , 24°C
Dew Point: 70°F , 21°C
Humidity: 83%
Barometer: 29.77 inHg , 1008.1 hPa
Clouds: Partly cloudy
Visibility: 10 miles , 16 km
Cloud details: Partly cloudy 1500 ft
2024/05/27 16:35 K7W4 271635Z AUTO 00000KT 10SM SCT015 24/21 A2977 RMK AO1 T02350213
 
KFVX - Farmville, Virginia, USA
Distance from station: W 43mi, 69km
Updated: Mon, 27-May-2024 12:35pm EDT
Overcast
Overcast
 Wind from SSW
Wind: SSW 10 mph , 17 km/h, Gust: 16 mph , 26 km/h
Temperature: 73°F , 23°C
Dew Point: 72°F , 22°C
Humidity: 94%
Barometer: 29.80 inHg , 1009.1 hPa
Clouds: Overcast
Visibility: 7 miles , 11 km
Cloud details: Overcast 800 ft
2024/05/27 16:35 KFVX 271635Z AUTO 20009G14KT 7SM OVC008 23/22 A2980 RMK AO2 T02290216
KW31 - Kenbridge, Virginia, USA
Distance from station: SW 43mi, 70km
Updated: Mon, 27-May-2024 12:35pm EDT
Overcast
Overcast
 Wind from SSW
Wind: SSW 9 mph , 15 km/h
Temperature: 77°F , 25°C
Dew Point: 72°F , 22°C
Humidity: 83%
Barometer: 29.81 inHg , 1009.5 hPa
Clouds: Overcast
Visibility: 10 miles , 16 km
Cloud details: Overcast 1800 ft
2024/05/27 16:35 KW31 271635Z AUTO 21008KT 10SM OVC018 25/22 A2981 RMK AO1 T02500217
 
KLKU - Louisa, Virginia, USA
Distance from station: NNW 44mi, 72km
Updated: Mon, 27-May-2024 12:35pm EDT
Overcast
Overcast
 Wind from S
Wind: S 8 mph , 13 km/h
Temperature: 73°F , 23°C
Dew Point: 70°F , 21°C
Humidity: 89%
Barometer: 29.77 inHg , 1008.1 hPa
Clouds: Overcast
Visibility: 10 miles , 16 km
Cloud details: Overcast 1000 ft
2024/05/27 16:35 KLKU 271635Z AUTO 18007KT 110V230 10SM OVC010 23/21 A2977 RMK AO2 T02320205
KLVL - Lawrenceville, Virginia, USA
Distance from station: S 46mi, 75km
Updated: Mon, 27-May-2024 12:35pm EDT
Overcast
Overcast
 Wind from SSE
Wind: SSE 8 mph , 13 km/h
Temperature: 77°F , 25°C
Dew Point: 73°F , 23°C
Humidity: 89%
Barometer: 29.83 inHg , 1010.2 hPa
Clouds: Overcast
Visibility: less than 1/4 mile , 0.4 km
Cloud details: Overcast 1100 ft
2024/05/27 16:35 KLVL 271635Z AUTO 16007KT 130V190 M1/4SM OVC011 25/23 A2983 RMK AO1 T02510225
 
KAKQ - Norfolk/Wakefld, Virginia, USA
Distance from station: SE 47mi, 75km
Updated: Mon, 27-May-2024 11:54am EDT
Light rain, Mist, Overcast
Light rain, Mist, Overcast
 Wind from varies
Wind: varies 5 mph , 7 km/h
Temperature: 70°F , 21°C
Dew Point: 68°F , 20°C
Humidity: 94%
Barometer: 29.85 inHg , 1010.8 hPa
Summary: Light rain, Mist
Clouds: Overcast
Visibility: 4 miles , 6 km
Cloud details: Few Clouds 6500 ft
Partly cloudy 9500 ft
Overcast 11000 ft
2024/05/27 15:54 KAKQ 271554Z AUTO VRB04KT 4SM -RA BR FEW065 SCT095 OVC110 21/20 A2985 RMK AO2 LTG DSNT E AND SE TSE07 SLP107 P0022 T02110200
KFYJ - West Point, Virginia, USA
Distance from station: E 48mi, 78km
Updated: Mon, 27-May-2024 12:35pm EDT
Mostly cloudy
Mostly cloudy
 Wind from S
Wind: S 10 mph , 17 km/h
Temperature: 72°F , 22°C
Dew Point: 70°F , 21°C
Humidity: 94%
Barometer: 29.82 inHg , 1009.8 hPa
Clouds: Mostly cloudy
Visibility: 10 miles , 16 km
Cloud details: Mostly cloudy 11000 ft
2024/05/27 16:35 KFYJ 271635Z AUTO 17009KT 10SM BKN110 22/21 A2982 RMK AO1 T02220206